Half Way, Missouri
Current Conditions -  °F | °C
As of 7:52 PM on Friday 21 Nov 2014 (Local Time) from KSGF Reporting Station
Overcast Overcast  
Wind Chill: 36°   Ceiling: 700
Heat Index: 43°   Visibility: 8mi
Dew Point: 40°   Wind: 14mph
Humidity: 89%   Direction: 150°SSE
Pressure: 30.15"   Gusts: NA
Location:  37.62°N, 93.24°W
Report Text: KSGF 220152Z 15012KT 8SM OVC007 06/04 A3015 RMK AO2 SLP214 T00610044
Loading
Personal Weather Stations






























Interactive Weather Map New forecast layout! Learn more

10-Day Weather Forecast

Advertisements
Track Severe Weather on mobile